createdAt,value
2018-04-16T00:01:36.899Z,89.00
2018-04-16T00:04:06.261Z,89.60
2018-04-16T00:06:36.086Z,89.70
2018-04-16T00:09:05.397Z,89.80
2018-04-16T00:11:34.744Z,88.30
2018-04-16T00:14:03.962Z,88.40
2018-04-16T00:16:33.421Z,88.50
2018-04-16T00:19:02.658Z,89.80
2018-04-16T00:21:32.761Z,88.40
2018-04-16T00:24:02.098Z,88.40
2018-04-16T00:26:31.361Z,88.40
2018-04-16T00:29:00.609Z,87.90
2018-04-16T00:31:35.356Z,87.60
2018-04-16T00:34:10.246Z,88.30
2018-04-16T00:36:45.051Z,88.50
2018-04-16T00:39:20.770Z,87.70
2018-04-16T00:41:55.753Z,87.70
2018-04-16T00:44:31.427Z,89.70
2018-04-16T00:47:06.284Z,89.60
2018-04-16T00:49:40.957Z,89.60
2018-04-16T00:52:15.886Z,89.60
2018-04-16T00:54:51.413Z,89.40
2018-04-16T00:57:26.940Z,90.10
2018-04-16T01:00:01.877Z,89.60
2018-04-16T01:02:36.806Z,87.50
2018-04-16T01:05:11.718Z,86.80
2018-04-16T01:07:47.381Z,86.30
2018-04-16T01:10:22.335Z,86.30
2018-04-16T01:12:57.248Z,86.70
2018-04-16T01:15:32.082Z,87.00
2018-04-16T01:18:06.802Z,87.70
2018-04-16T01:20:41.667Z,88.60
2018-04-16T01:23:17.262Z,86.90
2018-04-16T01:25:52.212Z,87.40
2018-04-16T01:28:27.246Z,87.70
2018-04-16T01:31:02.025Z,88.40
2018-04-16T01:33:36.815Z,88.60
2018-04-16T01:36:11.668Z,89.00
2018-04-16T01:38:46.418Z,89.40
2018-04-16T01:41:21.431Z,89.10
2018-04-16T01:43:57.049Z,89.30
2018-04-16T01:46:31.808Z,89.30
2018-04-16T01:49:07.323Z,89.50
2018-04-16T01:51:42.129Z,89.20
2018-04-16T01:54:16.896Z,90.20
2018-04-16T01:56:52.016Z,90.50
2018-04-16T01:59:26.676Z,90.30
2018-04-16T02:02:02.327Z,90.30
2018-04-16T02:04:37.828Z,90.70
2018-04-16T02:07:12.556Z,90.50
2018-04-16T02:09:47.398Z,90.60
2018-04-16T02:12:22.104Z,90.70
2018-04-16T02:14:56.925Z,90.60
2018-04-16T02:17:31.790Z,90.80
2018-04-16T02:20:07.426Z,90.50
2018-04-16T02:22:42.040Z,90.50
2018-04-16T02:25:16.882Z,90.40
2018-04-16T02:27:51.813Z,89.90
2018-04-16T02:30:26.634Z,89.40
2018-04-16T02:33:01.467Z,89.50
2018-04-16T02:35:36.453Z,89.80
2018-04-16T02:38:11.438Z,90.10
2018-04-16T02:40:46.269Z,90.20
2018-04-16T02:43:21.810Z,90.40
2018-04-16T02:45:56.496Z,90.40
2018-04-16T02:48:32.102Z,90.10
2018-04-16T02:51:06.815Z,90.10
2018-04-16T02:53:41.686Z,89.90
2018-04-16T02:56:16.464Z,90.00
2018-04-16T02:58:51.408Z,89.90
2018-04-16T03:01:26.548Z,89.50
2018-04-16T03:04:01.499Z,89.70
2018-04-16T03:06:36.448Z,90.50
2018-04-16T03:09:11.982Z,90.50
2018-04-16T03:11:47.712Z,90.30
2018-04-16T03:14:22.544Z,90.30
2018-04-16T03:16:57.443Z,90.60
2018-04-16T03:22:33.942Z,90.80
2018-04-16T03:25:09.593Z,91.10
2018-04-16T03:27:44.364Z,90.90
2018-04-16T03:30:19.184Z,91.00
2018-04-16T03:32:54.017Z,91.10
2018-04-16T03:35:29.045Z,91.50
2018-04-16T03:38:04.817Z,91.60
2018-04-16T03:40:39.621Z,91.60
2018-04-16T03:43:14.439Z,91.60
2018-04-16T03:46:04.239Z,91.20
2018-04-16T03:48:39.027Z,91.40
2018-04-16T03:51:11.670Z,91.60
2018-04-16T03:53:42.135Z,91.60
2018-04-16T03:56:11.451Z,91.60
2018-04-16T03:58:40.791Z,91.80
2018-04-16T04:01:10.073Z,92.00
2018-04-16T04:03:39.442Z,92.00
2018-04-16T04:06:08.723Z,92.10
2018-04-16T04:08:38.015Z,92.20
2018-04-16T04:11:07.248Z,92.10
2018-04-16T04:13:36.566Z,92.10
2018-04-16T04:16:05.847Z,92.30
2018-04-16T04:18:35.160Z,92.10
2018-04-16T04:21:04.457Z,92.20
2018-04-16T04:23:45.353Z,92.00
2018-04-16T04:26:26.413Z,92.20
2018-04-16T04:29:07.518Z,91.30
2018-04-16T04:31:36.793Z,91.30
2018-04-16T04:34:06.129Z,91.50
2018-04-16T04:36:35.357Z,91.80
2018-04-16T04:39:04.582Z,91.80
2018-04-16T04:41:33.876Z,91.80
2018-04-16T04:44:03.165Z,91.80
2018-04-16T04:46:32.468Z,91.70
2018-04-16T04:49:01.716Z,91.50
2018-04-16T04:51:31.712Z,91.10
2018-04-16T04:54:01.013Z,91.10
2018-04-16T04:56:30.222Z,91.10
2018-04-16T04:58:59.466Z,91.00
2018-04-16T05:01:29.515Z,90.60
2018-04-16T05:03:58.761Z,90.60
2018-04-16T05:06:28.080Z,90.70
2018-04-16T05:08:57.300Z,90.80
2018-04-16T05:11:26.576Z,90.80
2018-04-16T05:13:55.771Z,90.40
2018-04-16T05:16:25.772Z,90.40
2018-04-16T05:18:55.784Z,90.60
2018-04-16T05:21:25.098Z,90.60
2018-04-16T05:23:54.381Z,90.80
2018-04-16T05:26:23.866Z,90.80
2018-04-16T05:28:53.247Z,90.90
2018-04-16T05:31:22.515Z,90.90
2018-04-16T05:33:51.781Z,90.90
2018-04-16T05:36:21.067Z,90.90
2018-04-16T05:38:50.658Z,90.90
2018-04-16T05:41:20.001Z,91.00
2018-04-16T05:43:50.326Z,90.70
2018-04-16T05:46:19.650Z,90.70
2018-04-16T05:48:49.374Z,90.50
2018-04-16T05:51:19.165Z,90.40
2018-04-16T05:53:50.021Z,90.10
2018-04-16T05:56:19.544Z,90.00
2018-04-16T05:58:48.898Z,90.00
2018-04-16T06:01:18.732Z,89.70
2018-04-16T06:03:47.721Z,89.00
2018-04-16T06:06:17.764Z,88.50
2018-04-16T06:08:47.033Z,88.50
2018-04-16T06:11:16.266Z,87.90
2018-04-16T06:13:45.308Z,87.80
2018-04-16T06:16:16.304Z,87.10
2018-04-16T06:18:45.606Z,87.10
2018-04-16T06:21:15.083Z,86.80
2018-04-16T06:23:44.319Z,86.40
2018-04-16T06:26:13.317Z,85.90
2018-04-16T06:28:43.317Z,85.30
2018-04-16T06:31:12.582Z,85.20
2018-04-16T06:33:41.701Z,85.60
2018-04-16T06:36:11.851Z,85.60
2018-04-16T06:38:42.768Z,84.00
2018-04-16T06:41:11.992Z,83.90
2018-04-16T06:43:41.371Z,81.30
2018-04-16T06:46:10.593Z,80.50
2018-04-16T06:48:40.598Z,79.70
2018-04-16T06:51:09.884Z,79.60
2018-04-16T06:53:39.315Z,78.10
2018-04-16T06:56:08.501Z,77.60
2018-04-16T06:58:38.641Z,77.80
2018-04-16T07:01:08.037Z,77.70
2018-04-16T07:03:37.207Z,78.50
2018-04-16T07:06:06.451Z,78.50
2018-04-16T07:08:35.724Z,78.00
2018-04-16T07:11:05.902Z,76.30
2018-04-16T07:13:35.116Z,76.40
2018-04-16T07:16:04.384Z,75.60
2018-04-16T07:18:33.717Z,74.60
2018-04-16T07:21:03.138Z,73.60
2018-04-16T07:23:32.410Z,73.20
2018-04-16T07:26:01.709Z,72.50
2018-04-16T07:28:30.909Z,73.30
2018-04-16T07:31:00.142Z,73.20
2018-04-16T07:33:29.452Z,73.30
2018-04-16T07:35:59.451Z,74.80
2018-04-16T07:38:29.422Z,75.20
2018-04-16T07:40:58.657Z,75.20
2018-04-16T07:43:27.833Z,75.20
2018-04-16T07:45:57.345Z,74.70
2018-04-16T07:48:26.556Z,74.20
2018-04-16T07:50:55.766Z,73.40
2018-04-16T07:53:25.025Z,73.10
2018-04-16T07:55:54.223Z,73.30
2018-04-16T07:58:23.223Z,72.90
2018-04-16T08:00:52.192Z,72.60
2018-04-16T08:03:22.204Z,71.90
2018-04-16T08:05:52.263Z,71.30
2018-04-16T08:08:21.503Z,71.20
2018-04-16T08:10:50.756Z,71.30
2018-04-16T08:13:20.071Z,71.20
2018-04-16T08:15:49.458Z,71.80
2018-04-16T08:18:18.725Z,70.00
2018-04-16T08:20:47.933Z,69.10
2018-04-16T08:23:17.169Z,68.20
2018-04-16T08:25:46.214Z,67.10
2018-04-16T08:28:16.109Z,65.50
2018-04-16T08:30:45.325Z,65.40
2018-04-16T08:33:15.342Z,66.30
2018-04-16T08:35:44.579Z,66.30
2018-04-16T08:38:13.776Z,66.50
2018-04-16T08:40:42.999Z,66.50
2018-04-16T08:43:12.168Z,65.10
2018-04-16T08:45:41.396Z,65.40
2018-04-16T08:48:10.592Z,65.00
2018-04-16T08:50:39.759Z,65.60
2018-04-16T08:53:09.007Z,65.50
2018-04-16T08:55:38.978Z,63.50
2018-04-16T08:58:08.159Z,63.50
2018-04-16T09:00:37.381Z,62.20
2018-04-16T09:03:06.672Z,61.60
2018-04-16T09:05:35.905Z,60.10
2018-04-16T09:08:05.075Z,59.60
2018-04-16T09:10:34.251Z,59.80
2018-04-16T09:13:03.669Z,59.30
2018-04-16T09:15:32.973Z,59.30
2018-04-16T09:18:02.275Z,59.30
2018-04-16T09:20:31.473Z,59.00
2018-04-16T09:23:00.655Z,58.10
2018-04-16T09:25:29.923Z,58.40
2018-04-16T09:27:59.884Z,57.70
2018-04-16T09:30:28.876Z,57.70
2018-04-16T09:32:58.098Z,56.70
2018-04-16T09:35:28.098Z,56.70
2018-04-16T09:37:58.129Z,57.20
2018-04-16T09:40:28.170Z,57.50
2018-04-16T09:42:57.439Z,57.50
2018-04-16T09:45:26.748Z,56.50
2018-04-16T09:47:56.084Z,56.50
2018-04-16T09:50:25.437Z,56.40
2018-04-16T09:52:55.519Z,55.40
2018-04-16T09:55:24.692Z,55.90
2018-04-16T09:57:54.765Z,56.30
2018-04-16T10:00:28.515Z,56.30
2018-04-16T10:02:58.629Z,56.10
2018-04-16T10:05:27.797Z,54.90
2018-04-16T10:07:57.073Z,54.90
2018-04-16T10:10:26.305Z,54.60
2018-04-16T10:12:56.336Z,54.20
2018-04-16T10:15:26.292Z,54.10
2018-04-16T10:17:55.526Z,54.10
2018-04-16T10:20:24.796Z,53.30
2018-04-16T10:22:54.190Z,52.90
2018-04-16T10:25:23.617Z,53.30
2018-04-16T10:27:52.913Z,53.80
2018-04-16T10:30:22.171Z,53.40
2018-04-16T10:32:51.389Z,52.30
2018-04-16T10:35:20.600Z,52.50
2018-04-16T10:37:49.585Z,52.60
2018-04-16T10:40:18.800Z,52.10
2018-04-16T10:42:47.998Z,51.80
2018-04-16T10:45:17.196Z,50.40
2018-04-16T10:47:46.616Z,50.80
2018-04-16T10:50:15.857Z,51.10
2018-04-16T10:52:45.118Z,50.20
2018-04-16T10:55:14.331Z,50.50
2018-04-16T10:57:43.625Z,51.10
2018-04-16T11:00:13.663Z,50.60
2018-04-16T11:02:42.918Z,50.10
2018-04-16T11:05:12.216Z,51.10
2018-04-16T11:07:41.479Z,51.70
2018-04-16T11:10:11.019Z,52.30
2018-04-16T11:12:40.250Z,52.20
2018-04-16T11:15:09.507Z,52.30
2018-04-16T11:17:38.771Z,52.50
2018-04-16T11:20:08.736Z,50.70
2018-04-16T11:22:37.960Z,50.60
2018-04-16T11:25:07.193Z,50.30
2018-04-16T11:27:36.416Z,50.20
2018-04-16T11:30:05.607Z,50.50
2018-04-16T11:32:34.622Z,50.00
2018-04-16T11:35:03.844Z,50.30
2018-04-16T11:37:33.131Z,49.30
2018-04-16T11:40:02.334Z,48.10
2018-04-16T11:42:31.427Z,48.20
2018-04-16T11:45:00.666Z,47.90
2018-04-16T11:47:30.681Z,46.10
2018-04-16T11:50:00.655Z,45.80
2018-04-16T11:52:30.655Z,45.60
2018-04-16T11:54:59.669Z,45.60
2018-04-16T11:57:28.891Z,45.20
2018-04-16T11:59:58.103Z,44.90
2018-04-16T12:02:28.037Z,45.00
2018-04-16T12:04:57.289Z,45.00
2018-04-16T12:07:26.576Z,45.10
2018-04-16T12:09:55.756Z,45.20
2018-04-16T12:12:24.970Z,46.10
2018-04-16T12:14:54.168Z,46.60
2018-04-16T12:17:23.461Z,46.40
2018-04-16T12:19:52.662Z,45.20
2018-04-16T12:22:21.890Z,45.30
2018-04-16T12:24:51.161Z,45.80
2018-04-16T12:27:20.408Z,46.60
2018-04-16T12:29:49.676Z,47.40
2018-04-16T12:32:18.914Z,47.90
2018-04-16T12:34:48.142Z,48.60
2018-04-16T12:37:17.360Z,50.20
2018-04-16T12:39:46.563Z,50.20
2018-04-16T12:42:15.786Z,50.90
2018-04-16T12:44:45.104Z,51.90
2018-04-16T12:47:14.341Z,51.60
2018-04-16T12:49:43.690Z,52.40
2018-04-16T12:52:13.713Z,53.10
2018-04-16T12:54:42.900Z,53.00
2018-04-16T12:57:13.182Z,53.00
2018-04-16T12:59:42.482Z,52.90
2018-04-16T13:02:11.726Z,53.40
2018-04-16T13:04:40.943Z,53.60
2018-04-16T13:07:10.340Z,54.60
2018-04-16T13:09:39.573Z,55.50
2018-04-16T13:12:08.831Z,56.20
2018-04-16T13:14:38.096Z,55.40
2018-04-16T13:17:07.402Z,54.90
2018-04-16T13:19:36.718Z,54.60
2018-04-16T13:22:06.640Z,52.40
2018-04-16T13:24:35.925Z,52.20
2018-04-16T13:27:05.196Z,51.90
2018-04-16T13:29:34.492Z,51.40
2018-04-16T13:32:03.691Z,51.20
2018-04-16T13:34:32.932Z,51.10
2018-04-16T13:37:02.140Z,51.00
2018-04-16T13:39:31.430Z,49.70
2018-04-16T13:42:01.445Z,49.30
2018-04-16T13:44:30.653Z,49.20
2018-04-16T13:47:00.618Z,50.90
2018-04-16T13:49:29.880Z,50.90
2018-04-16T13:51:59.083Z,50.50
2018-04-16T13:54:28.291Z,50.80
2018-04-16T13:56:57.508Z,51.30
2018-04-16T13:59:26.727Z,51.30
2018-04-16T14:01:55.923Z,50.60
2018-04-16T14:04:25.720Z,51.10
2018-04-16T14:06:54.736Z,51.00
2018-04-16T14:09:23.722Z,50.30
2018-04-16T14:11:52.952Z,50.30
2018-04-16T14:14:22.301Z,50.40
2018-04-16T14:16:51.545Z,50.90
2018-04-16T14:19:21.486Z,50.60
2018-04-16T14:21:50.741Z,50.60
2018-04-16T14:24:20.124Z,51.00
2018-04-16T14:26:49.341Z,50.60
2018-04-16T14:29:18.620Z,51.80
2018-04-16T14:31:47.918Z,52.00
2018-04-16T14:34:17.111Z,51.90
2018-04-16T14:36:46.323Z,50.90
2018-04-16T14:39:15.714Z,49.80
2018-04-16T14:41:44.992Z,50.00
2018-04-16T14:44:14.316Z,50.60
2018-04-16T14:46:43.476Z,50.80
2018-04-16T14:49:12.690Z,51.20
2018-04-16T14:51:41.889Z,50.60
2018-04-16T14:54:11.168Z,50.60
2018-04-16T14:56:40.521Z,50.10
2018-04-16T14:59:09.693Z,49.80
2018-04-16T15:01:38.903Z,49.00
2018-04-16T15:04:08.187Z,49.30
2018-04-16T15:06:37.267Z,49.70
2018-04-16T15:09:06.573Z,49.70
2018-04-16T15:11:39.564Z,49.30
2018-04-16T15:14:08.765Z,44.30
2018-04-16T15:16:38.069Z,42.80
2018-04-16T15:19:07.281Z,42.10
2018-04-16T15:21:36.549Z,41.50
2018-04-16T15:24:05.780Z,41.60
2018-04-16T15:26:35.044Z,42.20
2018-04-16T15:29:04.277Z,42.10
2018-04-16T15:31:33.522Z,42.20
2018-04-16T15:34:02.674Z,39.90
2018-04-16T15:36:31.951Z,40.30
2018-04-16T15:39:02.051Z,39.30
2018-04-16T15:41:31.372Z,39.30
2018-04-16T15:44:00.641Z,39.00
2018-04-16T15:46:29.920Z,37.90
2018-04-16T15:48:59.210Z,37.90
2018-04-16T15:51:29.236Z,37.20
2018-04-16T15:53:58.606Z,37.30
2018-04-16T15:56:27.946Z,37.20
2018-04-16T15:58:57.926Z,37.50
2018-04-16T16:01:27.203Z,37.50
2018-04-16T16:03:56.500Z,39.20
2018-04-16T16:06:25.819Z,38.30
2018-04-16T16:08:55.038Z,38.20
2018-04-16T16:11:24.304Z,37.20
2018-04-16T16:13:53.570Z,38.40
2018-04-16T16:16:22.928Z,38.60
2018-04-16T16:18:52.217Z,38.10
2018-04-16T16:21:21.237Z,37.60
2018-04-16T16:23:50.456Z,38.30
2018-04-16T16:26:20.475Z,38.90
2018-04-16T16:28:50.482Z,39.80
2018-04-16T16:31:20.416Z,40.30
2018-04-16T16:33:50.561Z,41.40
2018-04-16T16:36:21.804Z,42.60
2018-04-16T16:38:51.146Z,42.70
2018-04-16T16:41:26.107Z,44.20
2018-04-16T16:43:56.068Z,46.30
2018-04-16T16:46:25.327Z,46.30
2018-04-16T16:48:55.711Z,46.50
2018-04-16T16:51:25.005Z,47.10
2018-04-16T16:53:54.136Z,47.60
2018-04-16T16:56:23.203Z,48.30
2018-04-16T16:58:52.452Z,49.00
2018-04-16T17:01:21.664Z,49.70
2018-04-16T17:03:50.867Z,50.10
2018-04-16T17:06:20.061Z,50.60
2018-04-16T17:08:49.742Z,50.60
2018-04-16T17:11:19.724Z,50.80
2018-04-16T17:13:49.884Z,50.80
2018-04-16T17:16:19.050Z,51.00
2018-04-16T17:18:48.079Z,51.80
2018-04-16T17:21:17.865Z,52.30
2018-04-16T17:23:48.976Z,52.00
2018-04-16T17:26:18.139Z,52.00
2018-04-16T17:28:47.370Z,51.80
2018-04-16T17:31:16.614Z,51.00
2018-04-16T17:33:46.075Z,49.80
2018-04-16T17:36:15.334Z,48.80
2018-04-16T17:38:45.813Z,48.10
2018-04-16T17:41:15.076Z,47.80
2018-04-16T17:43:44.312Z,48.60
2018-04-16T17:46:13.559Z,49.90
2018-04-16T17:48:43.821Z,51.90
2018-04-16T17:51:13.097Z,51.90
2018-04-16T17:53:42.498Z,52.70
2018-04-16T17:56:11.736Z,53.20
2018-04-16T17:58:42.019Z,54.60
2018-04-16T18:01:11.308Z,54.60
2018-04-16T18:03:41.832Z,54.10
2018-04-16T18:06:11.087Z,53.80
2018-04-16T18:08:40.271Z,53.80
2018-04-16T18:11:09.678Z,54.80
2018-04-16T18:13:38.820Z,55.80
2018-04-16T18:16:08.184Z,56.30
2018-04-16T18:18:38.206Z,56.40
2018-04-16T18:21:13.188Z,57.30
2018-04-16T18:23:43.344Z,58.10
2018-04-16T18:26:12.518Z,58.10
2018-04-16T18:28:42.149Z,58.40
2018-04-16T18:31:11.335Z,61.40
2018-04-16T18:33:40.754Z,61.20
2018-04-16T18:36:10.153Z,60.90
2018-04-16T18:38:39.478Z,61.50
2018-04-16T18:41:09.568Z,63.80
2018-04-16T18:43:38.767Z,63.70
2018-04-16T18:46:07.762Z,64.70
2018-04-16T18:48:37.062Z,64.80
2018-04-16T18:51:06.434Z,66.10
2018-04-16T18:53:39.653Z,66.30
2018-04-16T18:56:12.544Z,66.60
2018-04-16T18:58:41.727Z,67.00
2018-04-16T19:01:10.907Z,67.70
2018-04-16T19:03:40.899Z,69.70
2018-04-16T19:06:10.820Z,71.00
2018-04-16T19:08:40.129Z,70.90
2018-04-16T19:11:09.470Z,71.90
2018-04-16T19:13:38.880Z,72.40
2018-04-16T19:16:08.085Z,72.40
2018-04-16T19:18:37.378Z,72.40
2018-04-16T19:21:12.288Z,73.70
2018-04-16T19:23:41.479Z,73.70
2018-04-16T19:26:10.815Z,74.70
2018-04-16T19:28:39.978Z,76.00
2018-04-16T19:31:09.266Z,76.50
2018-04-16T19:36:40.469Z,77.10
2018-04-16T19:39:10.331Z,78.20
2018-04-16T19:41:45.141Z,77.60
2018-04-16T19:44:14.659Z,78.10
2018-04-16T19:46:43.930Z,78.30
2018-04-16T19:49:18.913Z,78.80
2018-04-16T19:51:48.468Z,79.60
2018-04-16T19:54:17.771Z,80.60
2018-04-16T19:56:52.785Z,80.60
2018-04-16T19:59:22.135Z,81.30
2018-04-16T20:01:58.561Z,81.60
2018-04-16T20:04:27.852Z,81.40
2018-04-16T20:06:57.896Z,82.50
2018-04-16T20:09:27.171Z,82.50
2018-04-16T20:11:57.195Z,82.20
2018-04-16T20:14:26.433Z,82.00
2018-04-16T20:16:55.653Z,82.00
2018-04-16T20:19:24.899Z,81.80
2018-04-16T20:21:54.160Z,82.20
2018-04-16T20:24:25.035Z,82.80
2018-04-16T20:26:55.038Z,83.80
2018-04-16T20:29:24.294Z,83.80
2018-04-16T20:31:53.509Z,84.30
2018-04-16T20:34:22.741Z,84.40
2018-04-16T20:36:52.015Z,84.60
2018-04-16T20:39:21.297Z,85.30
2018-04-16T20:41:50.888Z,85.60
2018-04-16T20:44:20.662Z,85.80
2018-04-16T20:46:51.466Z,86.80
2018-04-16T20:49:20.818Z,86.80
2018-04-16T20:51:50.178Z,88.30
2018-04-16T20:54:19.453Z,90.00
2018-04-16T20:56:48.847Z,88.30
2018-04-16T20:59:18.146Z,87.80
2018-04-16T21:01:48.214Z,87.70
2018-04-16T21:04:17.675Z,87.70
2018-04-16T21:07:05.151Z,88.80
2018-04-16T21:09:40.367Z,88.70
2018-04-16T21:12:10.509Z,89.80
2018-04-16T21:14:39.788Z,89.80
2018-04-16T21:17:09.044Z,90.20
2018-04-16T21:19:38.993Z,90.50
2018-04-16T21:22:08.322Z,90.50
2018-04-16T21:24:38.765Z,90.90
2018-04-16T21:27:08.051Z,90.80
2018-04-16T21:29:37.303Z,91.10
2018-04-16T21:32:07.809Z,91.60
2018-04-16T21:34:37.089Z,91.60
2018-04-16T21:37:07.097Z,91.00
2018-04-16T21:39:36.325Z,91.00
2018-04-16T21:42:06.361Z,90.90
2018-04-16T21:44:36.392Z,90.70
2018-04-16T21:47:06.769Z,90.70
2018-04-16T21:49:36.017Z,90.70
2018-04-16T21:52:05.324Z,90.70
2018-04-16T21:54:34.636Z,90.70
2018-04-16T21:57:03.911Z,90.80
2018-04-16T21:59:33.142Z,90.70
2018-04-16T22:02:02.416Z,90.30
2018-04-16T22:04:31.669Z,90.00
2018-04-16T22:07:00.916Z,89.20
2018-04-16T22:09:31.869Z,88.40
2018-04-16T22:12:01.140Z,88.50
2018-04-16T22:14:30.424Z,87.80
2018-04-16T22:16:59.692Z,87.40
2018-04-16T22:19:28.981Z,87.60
2018-04-16T22:21:58.238Z,87.60
2018-04-16T22:24:27.449Z,89.10
2018-04-16T22:26:56.781Z,88.60
2018-04-16T22:29:26.010Z,89.40
2018-04-16T22:31:56.385Z,90.30
2018-04-16T22:34:25.642Z,90.70
2018-04-16T22:36:54.916Z,90.80
2018-04-16T22:39:24.882Z,91.00
2018-04-16T22:41:54.154Z,91.00
2018-04-16T22:44:23.448Z,91.10
2018-04-16T22:46:52.679Z,91.40
2018-04-16T22:49:21.945Z,91.40
2018-04-16T22:51:51.201Z,91.50
2018-04-16T22:54:20.481Z,91.50
2018-04-16T22:56:50.585Z,91.60
2018-04-16T22:59:19.952Z,91.60
2018-04-16T23:01:49.327Z,92.00
2018-04-16T23:04:19.490Z,92.40
2018-04-16T23:06:48.874Z,92.40
2018-04-16T23:09:18.982Z,92.90
2018-04-16T23:11:48.232Z,92.90
2018-04-16T23:14:17.561Z,92.90
2018-04-16T23:16:46.860Z,92.90
2018-04-16T23:19:16.196Z,93.10
2018-04-16T23:21:45.550Z,93.20
2018-04-16T23:24:14.902Z,93.50
2018-04-16T23:26:44.294Z,93.60
2018-04-16T23:29:14.401Z,93.60
2018-04-16T23:31:43.697Z,93.70
2018-04-16T23:34:13.051Z,93.50
2018-04-16T23:36:42.306Z,93.40
2018-04-16T23:39:12.387Z,93.30
2018-04-16T23:41:42.423Z,92.90
2018-04-16T23:44:11.757Z,93.00
2018-04-16T23:46:41.047Z,92.90
2018-04-16T23:49:10.327Z,92.80
2018-04-16T23:51:39.649Z,92.80
2018-04-16T23:54:09.809Z,92.80
2018-04-16T23:56:39.148Z,92.80
2018-04-16T23:59:08.429Z,92.90
